sensor_id;sensor_type;location;lat;lon;timestamp;P1;durP1;ratioP1;P2;durP2;ratioP2
41946;SDS011;27638;42.184;24.848;2022-07-09T00:02:22;5.82;;;4.22;;
41946;SDS011;27638;42.184;24.848;2022-07-09T00:04:48;5.88;;;3.83;;
41946;SDS011;27638;42.184;24.848;2022-07-09T00:07:13;6.07;;;3.78;;
41946;SDS011;27638;42.184;24.848;2022-07-09T00:09:39;4.53;;;3.45;;
41946;SDS011;27638;42.184;24.848;2022-07-09T00:12:04;5.70;;;3.45;;
41946;SDS011;27638;42.184;24.848;2022-07-09T00:14:30;4.63;;;3.90;;
41946;SDS011;27638;42.184;24.848;2022-07-09T00:16:56;4.22;;;3.35;;
41946;SDS011;27638;42.184;24.848;2022-07-09T00:19:21;5.43;;;4.03;;
41946;SDS011;27638;42.184;24.848;2022-07-09T00:21:46;6.45;;;3.53;;
41946;SDS011;27638;42.184;24.848;2022-07-09T00:24:12;4.22;;;3.40;;
41946;SDS011;27638;42.184;24.848;2022-07-09T00:26:37;5.10;;;3.38;;
41946;SDS011;27638;42.184;24.848;2022-07-09T00:29:03;5.63;;;3.78;;
41946;SDS011;27638;42.184;24.848;2022-07-09T00:31:28;5.45;;;3.95;;
41946;SDS011;27638;42.184;24.848;2022-07-09T00:33:54;9.23;;;3.67;;
41946;SDS011;27638;42.184;24.848;2022-07-09T00:36:19;4.10;;;3.30;;
41946;SDS011;27638;42.184;24.848;2022-07-09T00:38:44;5.75;;;4.28;;
41946;SDS011;27638;42.184;24.848;2022-07-09T00:41:10;4.60;;;4.15;;
41946;SDS011;27638;42.184;24.848;2022-07-09T00:43:35;5.97;;;3.75;;
41946;SDS011;27638;42.184;24.848;2022-07-09T00:46:01;5.45;;;3.92;;
41946;SDS011;27638;42.184;24.848;2022-07-09T00:48:26;4.15;;;3.65;;
41946;SDS011;27638;42.184;24.848;2022-07-09T00:50:52;5.65;;;4.00;;
41946;SDS011;27638;42.184;24.848;2022-07-09T00:53:19;4.20;;;3.80;;
41946;SDS011;27638;42.184;24.848;2022-07-09T00:55:49;6.43;;;3.92;;
41946;SDS011;27638;42.184;24.848;2022-07-09T00:58:16;6.93;;;4.10;;
41946;SDS011;27638;42.184;24.848;2022-07-09T01:00:44;4.82;;;4.32;;
41946;SDS011;27638;42.184;24.848;2022-07-09T01:03:10;5.43;;;4.30;;
41946;SDS011;27638;42.184;24.848;2022-07-09T01:05:36;8.30;;;4.60;;
41946;SDS011;27638;42.184;24.848;2022-07-09T01:08:05;6.47;;;4.25;;
41946;SDS011;27638;42.184;24.848;2022-07-09T01:10:32;4.40;;;3.88;;
41946;SDS011;27638;42.184;24.848;2022-07-09T01:12:59;5.10;;;3.95;;
41946;SDS011;27638;42.184;24.848;2022-07-09T01:15:25;6.35;;;4.20;;
41946;SDS011;27638;42.184;24.848;2022-07-09T01:17:51;6.90;;;4.00;;
41946;SDS011;27638;42.184;24.848;2022-07-09T01:20:18;5.25;;;4.22;;
41946;SDS011;27638;42.184;24.848;2022-07-09T01:22:46;4.55;;;4.00;;
41946;SDS011;27638;42.184;24.848;2022-07-09T01:25:12;7.40;;;4.50;;
41946;SDS011;27638;42.184;24.848;2022-07-09T01:27:42;6.88;;;4.68;;
41946;SDS011;27638;42.184;24.848;2022-07-09T01:30:07;7.57;;;3.97;;
41946;SDS011;27638;42.184;24.848;2022-07-09T01:32:33;5.60;;;4.28;;
41946;SDS011;27638;42.184;24.848;2022-07-09T01:34:58;7.82;;;4.78;;
41946;SDS011;27638;42.184;24.848;2022-07-09T01:37:24;6.40;;;4.38;;
41946;SDS011;27638;42.184;24.848;2022-07-09T01:39:49;5.43;;;3.92;;
41946;SDS011;27638;42.184;24.848;2022-07-09T01:42:18;5.43;;;4.43;;
41946;SDS011;27638;42.184;24.848;2022-07-09T01:44:45;6.75;;;4.60;;
41946;SDS011;27638;42.184;24.848;2022-07-09T01:47:11;7.88;;;4.80;;
41946;SDS011;27638;42.184;24.848;2022-07-09T01:49:37;9.00;;;4.45;;
41946;SDS011;27638;42.184;24.848;2022-07-09T01:52:03;7.72;;;5.07;;
41946;SDS011;27638;42.184;24.848;2022-07-09T01:54:29;5.97;;;4.28;;
41946;SDS011;27638;42.184;24.848;2022-07-09T01:56:55;14.15;;;4.50;;
41946;SDS011;27638;42.184;24.848;2022-07-09T01:59:20;5.50;;;4.60;;
41946;SDS011;27638;42.184;24.848;2022-07-09T02:01:46;6.80;;;4.72;;
41946;SDS011;27638;42.184;24.848;2022-07-09T02:04:12;5.05;;;4.45;;
41946;SDS011;27638;42.184;24.848;2022-07-09T02:06:37;6.03;;;4.80;;
41946;SDS011;27638;42.184;24.848;2022-07-09T02:09:03;7.75;;;4.70;;
41946;SDS011;27638;42.184;24.848;2022-07-09T02:11:28;10.85;;;4.95;;
41946;SDS011;27638;42.184;24.848;2022-07-09T02:13:54;5.40;;;4.47;;
41946;SDS011;27638;42.184;24.848;2022-07-09T02:16:19;6.35;;;5.50;;
41946;SDS011;27638;42.184;24.848;2022-07-09T02:18:45;6.28;;;5.10;;
41946;SDS011;27638;42.184;24.848;2022-07-09T02:21:10;11.20;;;4.78;;
41946;SDS011;27638;42.184;24.848;2022-07-09T02:23:36;6.88;;;4.97;;
41946;SDS011;27638;42.184;24.848;2022-07-09T02:26:02;11.00;;;4.50;;
41946;SDS011;27638;42.184;24.848;2022-07-09T02:28:27;6.85;;;4.70;;
41946;SDS011;27638;42.184;24.848;2022-07-09T02:30:53;7.80;;;5.07;;
41946;SDS011;27638;42.184;24.848;2022-07-09T02:33:19;8.18;;;5.57;;
41946;SDS011;27638;42.184;24.848;2022-07-09T02:35:45;6.70;;;5.85;;
41946;SDS011;27638;42.184;24.848;2022-07-09T02:38:11;6.75;;;6.00;;
41946;SDS011;27638;42.184;24.848;2022-07-09T02:40:36;6.88;;;6.10;;
41946;SDS011;27638;42.184;24.848;2022-07-09T02:43:01;9.32;;;5.70;;
41946;SDS011;27638;42.184;24.848;2022-07-09T02:45:27;10.50;;;6.50;;
41946;SDS011;27638;42.184;24.848;2022-07-09T02:47:52;11.52;;;6.18;;
41946;SDS011;27638;42.184;24.848;2022-07-09T02:50:18;10.18;;;6.25;;
41946;SDS011;27638;42.184;24.848;2022-07-09T02:52:43;7.35;;;5.90;;
41946;SDS011;27638;42.184;24.848;2022-07-09T02:55:09;8.57;;;5.68;;
41946;SDS011;27638;42.184;24.848;2022-07-09T02:57:34;9.23;;;7.20;;
41946;SDS011;27638;42.184;24.848;2022-07-09T03:00:00;13.35;;;9.38;;
41946;SDS011;27638;42.184;24.848;2022-07-09T03:02:25;13.13;;;11.43;;
41946;SDS011;27638;42.184;24.848;2022-07-09T03:04:51;14.90;;;11.50;;
41946;SDS011;27638;42.184;24.848;2022-07-09T03:07:16;15.05;;;11.95;;
41946;SDS011;27638;42.184;24.848;2022-07-09T03:09:42;11.73;;;10.38;;
41946;SDS011;27638;42.184;24.848;2022-07-09T03:12:08;9.35;;;7.97;;
41946;SDS011;27638;42.184;24.848;2022-07-09T03:14:34;8.05;;;6.63;;
41946;SDS011;27638;42.184;24.848;2022-07-09T03:16:59;8.18;;;5.88;;
41946;SDS011;27638;42.184;24.848;2022-07-09T03:19:24;11.13;;;6.07;;
41946;SDS011;27638;42.184;24.848;2022-07-09T03:21:50;7.97;;;4.95;;
41946;SDS011;27638;42.184;24.848;2022-07-09T03:24:15;6.30;;;4.85;;
41946;SDS011;27638;42.184;24.848;2022-07-09T03:26:41;6.45;;;4.20;;
41946;SDS011;27638;42.184;24.848;2022-07-09T03:29:06;4.43;;;4.03;;
41946;SDS011;27638;42.184;24.848;2022-07-09T03:31:32;7.85;;;4.22;;
41946;SDS011;27638;42.184;24.848;2022-07-09T03:33:58;7.40;;;4.13;;
41946;SDS011;27638;42.184;24.848;2022-07-09T03:36:23;5.15;;;4.20;;
41946;SDS011;27638;42.184;24.848;2022-07-09T03:38:49;6.47;;;4.25;;
41946;SDS011;27638;42.184;24.848;2022-07-09T03:41:14;6.88;;;3.88;;
41946;SDS011;27638;42.184;24.848;2022-07-09T03:43:40;3.88;;;3.47;;
41946;SDS011;27638;42.184;24.848;2022-07-09T03:46:05;4.35;;;3.78;;
41946;SDS011;27638;42.184;24.848;2022-07-09T03:48:30;4.60;;;4.03;;
41946;SDS011;27638;42.184;24.848;2022-07-09T03:50:56;5.93;;;4.00;;
41946;SDS011;27638;42.184;24.848;2022-07-09T03:53:21;10.13;;;4.07;;
41946;SDS011;27638;42.184;24.848;2022-07-09T03:55:47;5.22;;;4.28;;
41946;SDS011;27638;42.184;24.848;2022-07-09T03:58:12;5.72;;;4.50;;
41946;SDS011;27638;42.184;24.848;2022-07-09T04:00:38;8.73;;;5.40;;
41946;SDS011;27638;42.184;24.848;2022-07-09T04:03:03;6.93;;;4.80;;
41946;SDS011;27638;42.184;24.848;2022-07-09T04:05:29;9.07;;;5.90;;
41946;SDS011;27638;42.184;24.848;2022-07-09T04:07:54;6.95;;;5.45;;
41946;SDS011;27638;42.184;24.848;2022-07-09T04:10:20;7.93;;;6.47;;
41946;SDS011;27638;42.184;24.848;2022-07-09T04:12:46;9.52;;;4.72;;
41946;SDS011;27638;42.184;24.848;2022-07-09T04:15:11;7.32;;;4.22;;
41946;SDS011;27638;42.184;24.848;2022-07-09T04:17:36;6.63;;;4.20;;
41946;SDS011;27638;42.184;24.848;2022-07-09T04:20:03;7.32;;;4.40;;
41946;SDS011;27638;42.184;24.848;2022-07-09T04:22:28;7.93;;;5.28;;
41946;SDS011;27638;42.184;24.848;2022-07-09T04:24:54;7.40;;;5.10;;
41946;SDS011;27638;42.184;24.848;2022-07-09T04:27:19;6.28;;;4.80;;
41946;SDS011;27638;42.184;24.848;2022-07-09T04:29:45;5.38;;;4.85;;
41946;SDS011;27638;42.184;24.848;2022-07-09T04:32:10;9.07;;;6.38;;
41946;SDS011;27638;42.184;24.848;2022-07-09T04:34:35;16.20;;;14.52;;
41946;SDS011;27638;42.184;24.848;2022-07-09T04:37:01;18.20;;;16.50;;
41946;SDS011;27638;42.184;24.848;2022-07-09T04:39:26;16.25;;;9.80;;
41946;SDS011;27638;42.184;24.848;2022-07-09T04:41:52;11.90;;;8.50;;
41946;SDS011;27638;42.184;24.848;2022-07-09T04:44:17;17.35;;;10.52;;
41946;SDS011;27638;42.184;24.848;2022-07-09T04:46:43;7.47;;;5.85;;
41946;SDS011;27638;42.184;24.848;2022-07-09T04:49:09;12.82;;;8.05;;
41946;SDS011;27638;42.184;24.848;2022-07-09T04:51:34;12.50;;;7.57;;
41946;SDS011;27638;42.184;24.848;2022-07-09T04:54:00;7.18;;;4.68;;
41946;SDS011;27638;42.184;24.848;2022-07-09T04:56:25;16.00;;;7.65;;
41946;SDS011;27638;42.184;24.848;2022-07-09T04:58:51;12.27;;;8.27;;
41946;SDS011;27638;42.184;24.848;2022-07-09T05:01:20;9.23;;;6.68;;
41946;SDS011;27638;42.184;24.848;2022-07-09T05:03:47;9.27;;;7.55;;
41946;SDS011;27638;42.184;24.848;2022-07-09T05:06:16;8.27;;;7.10;;
41946;SDS011;27638;42.184;24.848;2022-07-09T05:08:42;10.23;;;6.60;;
41946;SDS011;27638;42.184;24.848;2022-07-09T05:11:08;12.15;;;7.07;;
41946;SDS011;27638;42.184;24.848;2022-07-09T05:13:35;12.55;;;7.43;;
41946;SDS011;27638;42.184;24.848;2022-07-09T05:16:01;8.80;;;7.07;;
41946;SDS011;27638;42.184;24.848;2022-07-09T05:18:27;8.18;;;5.97;;
41946;SDS011;27638;42.184;24.848;2022-07-09T05:20:54;6.78;;;5.70;;
41946;SDS011;27638;42.184;24.848;2022-07-09T05:23:19;10.38;;;6.35;;
41946;SDS011;27638;42.184;24.848;2022-07-09T05:25:45;8.32;;;6.28;;
41946;SDS011;27638;42.184;24.848;2022-07-09T05:28:10;6.20;;;5.47;;
41946;SDS011;27638;42.184;24.848;2022-07-09T05:30:36;8.00;;;5.68;;
41946;SDS011;27638;42.184;24.848;2022-07-09T05:33:02;6.13;;;5.20;;
41946;SDS011;27638;42.184;24.848;2022-07-09T05:35:29;6.97;;;4.57;;
41946;SDS011;27638;42.184;24.848;2022-07-09T05:37:55;8.52;;;5.07;;
41946;SDS011;27638;42.184;24.848;2022-07-09T05:40:21;5.50;;;4.53;;
41946;SDS011;27638;42.184;24.848;2022-07-09T05:42:46;8.30;;;5.60;;
41946;SDS011;27638;42.184;24.848;2022-07-09T05:45:12;8.52;;;4.88;;
41946;SDS011;27638;42.184;24.848;2022-07-09T05:47:37;9.07;;;5.30;;
41946;SDS011;27638;42.184;24.848;2022-07-09T05:50:03;7.78;;;6.97;;
41946;SDS011;27638;42.184;24.848;2022-07-09T05:52:29;6.22;;;5.20;;
41946;SDS011;27638;42.184;24.848;2022-07-09T05:54:55;7.38;;;4.63;;
41946;SDS011;27638;42.184;24.848;2022-07-09T05:57:20;5.50;;;4.18;;
41946;SDS011;27638;42.184;24.848;2022-07-09T05:59:46;8.82;;;4.78;;
41946;SDS011;27638;42.184;24.848;2022-07-09T06:02:11;6.88;;;4.63;;
41946;SDS011;27638;42.184;24.848;2022-07-09T06:04:36;10.60;;;4.82;;
41946;SDS011;27638;42.184;24.848;2022-07-09T06:07:02;6.00;;;4.88;;
41946;SDS011;27638;42.184;24.848;2022-07-09T06:09:28;11.95;;;4.75;;
41946;SDS011;27638;42.184;24.848;2022-07-09T06:11:53;5.72;;;4.40;;
41946;SDS011;27638;42.184;24.848;2022-07-09T06:14:19;15.07;;;9.00;;
41946;SDS011;27638;42.184;24.848;2022-07-09T06:16:44;26.42;;;18.70;;
41946;SDS011;27638;42.184;24.848;2022-07-09T06:19:12;11.80;;;9.80;;
41946;SDS011;27638;42.184;24.848;2022-07-09T06:21:38;10.07;;;7.00;;
41946;SDS011;27638;42.184;24.848;2022-07-09T06:24:04;9.25;;;6.30;;
41946;SDS011;27638;42.184;24.848;2022-07-09T06:26:30;7.03;;;6.20;;
41946;SDS011;27638;42.184;24.848;2022-07-09T06:28:56;8.90;;;5.93;;
41946;SDS011;27638;42.184;24.848;2022-07-09T06:31:22;11.60;;;6.20;;
41946;SDS011;27638;42.184;24.848;2022-07-09T06:33:48;7.10;;;6.18;;
41946;SDS011;27638;42.184;24.848;2022-07-09T06:36:13;8.07;;;6.40;;
41946;SDS011;27638;42.184;24.848;2022-07-09T06:38:39;11.40;;;6.63;;
41946;SDS011;27638;42.184;24.848;2022-07-09T06:41:23;6.80;;;5.15;;
41946;SDS011;27638;42.184;24.848;2022-07-09T06:43:48;5.03;;;4.25;;
41946;SDS011;27638;42.184;24.848;2022-07-09T06:46:14;9.85;;;4.57;;
41946;SDS011;27638;42.184;24.848;2022-07-09T06:48:39;6.53;;;3.97;;
41946;SDS011;27638;42.184;24.848;2022-07-09T06:51:05;6.40;;;4.22;;
41946;SDS011;27638;42.184;24.848;2022-07-09T06:53:30;5.65;;;3.92;;
41946;SDS011;27638;42.184;24.848;2022-07-09T06:55:56;4.85;;;4.13;;
41946;SDS011;27638;42.184;24.848;2022-07-09T06:58:21;6.05;;;4.00;;
41946;SDS011;27638;42.184;24.848;2022-07-09T07:00:47;4.15;;;3.75;;
41946;SDS011;27638;42.184;24.848;2022-07-09T07:03:12;9.23;;;4.57;;
41946;SDS011;27638;42.184;24.848;2022-07-09T07:05:37;6.05;;;3.80;;
41946;SDS011;27638;42.184;24.848;2022-07-09T07:08:03;8.43;;;4.50;;
41946;SDS011;27638;42.184;24.848;2022-07-09T07:10:29;7.65;;;5.60;;
41946;SDS011;27638;42.184;24.848;2022-07-09T07:12:54;8.18;;;7.20;;
41946;SDS011;27638;42.184;24.848;2022-07-09T07:15:20;9.70;;;7.10;;
41946;SDS011;27638;42.184;24.848;2022-07-09T07:17:46;8.88;;;6.68;;
41946;SDS011;27638;42.184;24.848;2022-07-09T07:20:13;11.18;;;5.47;;
41946;SDS011;27638;42.184;24.848;2022-07-09T07:22:39;6.07;;;5.47;;
41946;SDS011;27638;42.184;24.848;2022-07-09T07:25:06;7.55;;;4.97;;
41946;SDS011;27638;42.184;24.848;2022-07-09T07:27:31;8.35;;;4.20;;
41946;SDS011;27638;42.184;24.848;2022-07-09T07:29:57;10.30;;;4.45;;
41946;SDS011;27638;42.184;24.848;2022-07-09T07:32:22;7.30;;;4.60;;
41946;SDS011;27638;42.184;24.848;2022-07-09T07:34:48;8.45;;;3.50;;
41946;SDS011;27638;42.184;24.848;2022-07-09T07:37:13;4.05;;;3.65;;
41946;SDS011;27638;42.184;24.848;2022-07-09T07:39:39;5.15;;;3.47;;
41946;SDS011;27638;42.184;24.848;2022-07-09T07:42:04;5.53;;;3.65;;
41946;SDS011;27638;42.184;24.848;2022-07-09T07:44:32;4.43;;;3.17;;
41946;SDS011;27638;42.184;24.848;2022-07-09T07:46:57;13.60;;;4.05;;
41946;SDS011;27638;42.184;24.848;2022-07-09T07:49:23;4.28;;;3.60;;
41946;SDS011;27638;42.184;24.848;2022-07-09T07:51:49;7.35;;;3.45;;
41946;SDS011;27638;42.184;24.848;2022-07-09T07:54:14;6.63;;;3.92;;
41946;SDS011;27638;42.184;24.848;2022-07-09T07:56:39;6.28;;;5.00;;
41946;SDS011;27638;42.184;24.848;2022-07-09T07:59:06;7.78;;;4.40;;
41946;SDS011;27638;42.184;24.848;2022-07-09T08:01:31;7.60;;;3.65;;
41946;SDS011;27638;42.184;24.848;2022-07-09T08:03:57;7.68;;;4.35;;
41946;SDS011;27638;42.184;24.848;2022-07-09T08:06:22;7.07;;;4.05;;
41946;SDS011;27638;42.184;24.848;2022-07-09T08:08:48;5.68;;;4.55;;
41946;SDS011;27638;42.184;24.848;2022-07-09T08:11:14;12.52;;;4.40;;
41946;SDS011;27638;42.184;24.848;2022-07-09T08:13:39;5.32;;;3.80;;
41946;SDS011;27638;42.184;24.848;2022-07-09T08:16:05;5.43;;;4.10;;
41946;SDS011;27638;42.184;24.848;2022-07-09T08:18:31;9.48;;;4.68;;
41946;SDS011;27638;42.184;24.848;2022-07-09T08:20:57;9.90;;;5.50;;
41946;SDS011;27638;42.184;24.848;2022-07-09T08:23:22;5.05;;;4.38;;
41946;SDS011;27638;42.184;24.848;2022-07-09T08:25:48;6.93;;;4.45;;
41946;SDS011;27638;42.184;24.848;2022-07-09T08:28:14;5.10;;;4.22;;
41946;SDS011;27638;42.184;24.848;2022-07-09T08:30:40;9.52;;;4.15;;
41946;SDS011;27638;42.184;24.848;2022-07-09T08:33:05;8.50;;;3.83;;
41946;SDS011;27638;42.184;24.848;2022-07-09T08:35:31;9.43;;;4.00;;
41946;SDS011;27638;42.184;24.848;2022-07-09T08:37:56;9.70;;;4.75;;
41946;SDS011;27638;42.184;24.848;2022-07-09T08:40:22;8.23;;;4.50;;
41946;SDS011;27638;42.184;24.848;2022-07-09T08:42:50;4.85;;;3.88;;
41946;SDS011;27638;42.184;24.848;2022-07-09T08:45:18;5.78;;;4.00;;
41946;SDS011;27638;42.184;24.848;2022-07-09T08:47:45;5.25;;;4.57;;
41946;SDS011;27638;42.184;24.848;2022-07-09T08:50:11;5.57;;;4.47;;
41946;SDS011;27638;42.184;24.848;2022-07-09T08:52:37;5.68;;;4.65;;
41946;SDS011;27638;42.184;24.848;2022-07-09T08:55:04;10.27;;;5.40;;
41946;SDS011;27638;42.184;24.848;2022-07-09T08:57:32;5.65;;;3.45;;
41946;SDS011;27638;42.184;24.848;2022-07-09T08:59:59;6.97;;;3.75;;
41946;SDS011;27638;42.184;24.848;2022-07-09T09:02:25;13.13;;;3.88;;
41946;SDS011;27638;42.184;24.848;2022-07-09T09:04:51;9.43;;;5.47;;
41946;SDS011;27638;42.184;24.848;2022-07-09T09:07:19;3.92;;;2.90;;
41946;SDS011;27638;42.184;24.848;2022-07-09T09:09:46;5.35;;;3.30;;
41946;SDS011;27638;42.184;24.848;2022-07-09T09:12:12;3.78;;;3.20;;
41946;SDS011;27638;42.184;24.848;2022-07-09T09:14:38;6.30;;;3.08;;
41946;SDS011;27638;42.184;24.848;2022-07-09T09:17:04;8.85;;;3.88;;
41946;SDS011;27638;42.184;24.848;2022-07-09T09:19:37;5.38;;;3.13;;
41946;SDS011;27638;42.184;24.848;2022-07-09T09:22:06;7.63;;;3.38;;
41946;SDS011;27638;42.184;24.848;2022-07-09T09:24:32;6.53;;;3.40;;
41946;SDS011;27638;42.184;24.848;2022-07-09T09:26:59;4.38;;;3.20;;
41946;SDS011;27638;42.184;24.848;2022-07-09T09:29:25;8.27;;;3.05;;
41946;SDS011;27638;42.184;24.848;2022-07-09T09:31:51;6.18;;;2.78;;
41946;SDS011;27638;42.184;24.848;2022-07-09T09:34:17;13.48;;;3.47;;
41946;SDS011;27638;42.184;24.848;2022-07-09T09:36:43;3.85;;;2.53;;
41946;SDS011;27638;42.184;24.848;2022-07-09T09:39:17;6.70;;;3.38;;
41946;SDS011;27638;42.184;24.848;2022-07-09T09:41:45;3.50;;;2.85;;
41946;SDS011;27638;42.184;24.848;2022-07-09T09:44:17;9.10;;;3.28;;
41946;SDS011;27638;42.184;24.848;2022-07-09T09:46:43;6.15;;;3.33;;
41946;SDS011;27638;42.184;24.848;2022-07-09T09:49:10;7.15;;;2.90;;
41946;SDS011;27638;42.184;24.848;2022-07-09T09:51:51;6.25;;;3.08;;
41946;SDS011;27638;42.184;24.848;2022-07-09T09:54:24;7.40;;;3.30;;
41946;SDS011;27638;42.184;24.848;2022-07-09T09:56:49;2.80;;;2.60;;
41946;SDS011;27638;42.184;24.848;2022-07-09T09:59:15;6.35;;;2.85;;
41946;SDS011;27638;42.184;24.848;2022-07-09T10:01:42;6.18;;;2.97;;
41946;SDS011;27638;42.184;24.848;2022-07-09T10:04:08;7.25;;;3.10;;
41946;SDS011;27638;42.184;24.848;2022-07-09T10:06:35;5.18;;;3.30;;
41946;SDS011;27638;42.184;24.848;2022-07-09T10:09:02;6.18;;;2.80;;
41946;SDS011;27638;42.184;24.848;2022-07-09T10:11:42;6.90;;;3.03;;
41946;SDS011;27638;42.184;24.848;2022-07-09T10:16:53;7.90;;;2.90;;
41946;SDS011;27638;42.184;24.848;2022-07-09T10:19:22;3.92;;;2.90;;
41946;SDS011;27638;42.184;24.848;2022-07-09T10:21:53;4.07;;;3.17;;
41946;SDS011;27638;42.184;24.848;2022-07-09T10:24:26;3.35;;;2.95;;
41946;SDS011;27638;42.184;24.848;2022-07-09T10:27:03;7.55;;;3.35;;
41946;SDS011;27638;42.184;24.848;2022-07-09T10:29:54;3.45;;;2.78;;
41946;SDS011;27638;42.184;24.848;2022-07-09T10:32:28;3.70;;;3.10;;
41946;SDS011;27638;42.184;24.848;2022-07-09T10:35:01;10.48;;;3.97;;
41946;SDS011;27638;42.184;24.848;2022-07-09T10:42:35;4.15;;;3.30;;
41946;SDS011;27638;42.184;24.848;2022-07-09T10:45:01;5.15;;;2.97;;
41946;SDS011;27638;42.184;24.848;2022-07-09T10:47:36;4.25;;;3.30;;
41946;SDS011;27638;42.184;24.848;2022-07-09T10:50:06;10.43;;;3.47;;
41946;SDS011;27638;42.184;24.848;2022-07-09T10:52:32;4.65;;;2.97;;
41946;SDS011;27638;42.184;24.848;2022-07-09T10:54:59;4.95;;;3.22;;
41946;SDS011;27638;42.184;24.848;2022-07-09T10:57:24;13.65;;;3.33;;
41946;SDS011;27638;42.184;24.848;2022-07-09T10:59:49;4.20;;;3.28;;
41946;SDS011;27638;42.184;24.848;2022-07-09T11:02:21;6.38;;;3.60;;
41946;SDS011;27638;42.184;24.848;2022-07-09T11:04:48;6.07;;;3.88;;
41946;SDS011;27638;42.184;24.848;2022-07-09T11:07:22;10.20;;;4.35;;
41946;SDS011;27638;42.184;24.848;2022-07-09T11:09:48;4.80;;;3.30;;
41946;SDS011;27638;42.184;24.848;2022-07-09T11:12:15;5.90;;;3.47;;
41946;SDS011;27638;42.184;24.848;2022-07-09T11:14:48;6.38;;;3.25;;
41946;SDS011;27638;42.184;24.848;2022-07-09T11:17:15;6.32;;;4.00;;
41946;SDS011;27638;42.184;24.848;2022-07-09T11:19:41;6.15;;;3.63;;
41946;SDS011;27638;42.184;24.848;2022-07-09T11:22:07;6.95;;;3.20;;
41946;SDS011;27638;42.184;24.848;2022-07-09T11:24:32;6.90;;;3.78;;
41946;SDS011;27638;42.184;24.848;2022-07-09T11:27:02;7.35;;;3.40;;
41946;SDS011;27638;42.184;24.848;2022-07-09T11:29:31;6.57;;;3.42;;
41946;SDS011;27638;42.184;24.848;2022-07-09T11:31:57;5.25;;;3.50;;
41946;SDS011;27638;42.184;24.848;2022-07-09T11:34:23;5.45;;;4.25;;
41946;SDS011;27638;42.184;24.848;2022-07-09T11:36:52;5.38;;;3.70;;
41946;SDS011;27638;42.184;24.848;2022-07-09T11:39:29;9.82;;;3.38;;
41946;SDS011;27638;42.184;24.848;2022-07-09T11:41:56;7.63;;;4.10;;
41946;SDS011;27638;42.184;24.848;2022-07-09T11:47:02;7.57;;;3.95;;
41946;SDS011;27638;42.184;24.848;2022-07-09T11:49:31;6.75;;;4.65;;
41946;SDS011;27638;42.184;24.848;2022-07-09T11:52:04;5.10;;;3.45;;
41946;SDS011;27638;42.184;24.848;2022-07-09T11:54:53;5.25;;;3.58;;
41946;SDS011;27638;42.184;24.848;2022-07-09T11:57:19;4.28;;;3.30;;
41946;SDS011;27638;42.184;24.848;2022-07-09T11:59:48;8.07;;;3.53;;
41946;SDS011;27638;42.184;24.848;2022-07-09T12:02:28;7.47;;;3.78;;
41946;SDS011;27638;42.184;24.848;2022-07-09T12:04:54;3.83;;;3.28;;
41946;SDS011;27638;42.184;24.848;2022-07-09T12:07:19;3.67;;;3.30;;
41946;SDS011;27638;42.184;24.848;2022-07-09T12:09:45;4.47;;;3.55;;
41946;SDS011;27638;42.184;24.848;2022-07-09T12:12:10;4.10;;;3.70;;
41946;SDS011;27638;42.184;24.848;2022-07-09T12:14:36;8.85;;;3.00;;
41946;SDS011;27638;42.184;24.848;2022-07-09T12:17:01;5.30;;;3.33;;
41946;SDS011;27638;42.184;24.848;2022-07-09T12:19:27;4.47;;;3.70;;
41946;SDS011;27638;42.184;24.848;2022-07-09T12:21:52;4.80;;;3.58;;
41946;SDS011;27638;42.184;24.848;2022-07-09T12:24:18;6.38;;;3.83;;
41946;SDS011;27638;42.184;24.848;2022-07-09T12:26:43;8.05;;;4.07;;
41946;SDS011;27638;42.184;24.848;2022-07-09T12:29:09;6.40;;;3.92;;
41946;SDS011;27638;42.184;24.848;2022-07-09T12:31:34;4.85;;;4.03;;
41946;SDS011;27638;42.184;24.848;2022-07-09T12:34:03;10.98;;;4.07;;
41946;SDS011;27638;42.184;24.848;2022-07-09T12:36:30;7.05;;;4.45;;
41946;SDS011;27638;42.184;24.848;2022-07-09T12:38:56;6.55;;;4.88;;
41946;SDS011;27638;42.184;24.848;2022-07-09T12:41:21;6.55;;;4.03;;
41946;SDS011;27638;42.184;24.848;2022-07-09T12:43:47;6.45;;;4.35;;
41946;SDS011;27638;42.184;24.848;2022-07-09T12:46:12;7.50;;;4.35;;
41946;SDS011;27638;42.184;24.848;2022-07-09T12:48:38;5.88;;;4.55;;
41946;SDS011;27638;42.184;24.848;2022-07-09T12:51:03;6.30;;;4.25;;
41946;SDS011;27638;42.184;24.848;2022-07-09T12:53:29;8.40;;;4.97;;
41946;SDS011;27638;42.184;24.848;2022-07-09T12:55:54;6.15;;;4.85;;
41946;SDS011;27638;42.184;24.848;2022-07-09T12:58:19;11.43;;;5.30;;
41946;SDS011;27638;42.184;24.848;2022-07-09T13:00:45;9.23;;;5.00;;
41946;SDS011;27638;42.184;24.848;2022-07-09T13:03:10;9.13;;;5.07;;
41946;SDS011;27638;42.184;24.848;2022-07-09T13:05:36;6.50;;;5.28;;
41946;SDS011;27638;42.184;24.848;2022-07-09T13:08:02;12.35;;;4.93;;
41946;SDS011;27638;42.184;24.848;2022-07-09T13:10:27;8.63;;;4.25;;
41946;SDS011;27638;42.184;24.848;2022-07-09T13:12:52;8.25;;;4.35;;
41946;SDS011;27638;42.184;24.848;2022-07-09T13:15:18;9.38;;;4.63;;
41946;SDS011;27638;42.184;24.848;2022-07-09T13:17:47;7.80;;;3.75;;
41946;SDS011;27638;42.184;24.848;2022-07-09T13:20:12;6.68;;;4.15;;
41946;SDS011;27638;42.184;24.848;2022-07-09T13:22:38;10.52;;;4.70;;
41946;SDS011;27638;42.184;24.848;2022-07-09T13:25:04;5.90;;;4.15;;
41946;SDS011;27638;42.184;24.848;2022-07-09T13:27:29;5.85;;;3.80;;
41946;SDS011;27638;42.184;24.848;2022-07-09T13:29:56;8.48;;;4.05;;
41946;SDS011;27638;42.184;24.848;2022-07-09T13:32:21;8.60;;;4.15;;
41946;SDS011;27638;42.184;24.848;2022-07-09T13:34:47;4.03;;;3.47;;
41946;SDS011;27638;42.184;24.848;2022-07-09T13:37:13;9.70;;;4.07;;
41946;SDS011;27638;42.184;24.848;2022-07-09T13:39:38;6.38;;;3.72;;
41946;SDS011;27638;42.184;24.848;2022-07-09T13:42:03;4.53;;;4.10;;
41946;SDS011;27638;42.184;24.848;2022-07-09T13:44:29;8.27;;;4.00;;
41946;SDS011;27638;42.184;24.848;2022-07-09T13:46:54;4.82;;;3.10;;
41946;SDS011;27638;42.184;24.848;2022-07-09T13:49:20;3.22;;;2.88;;
41946;SDS011;27638;42.184;24.848;2022-07-09T13:51:45;7.45;;;3.28;;
41946;SDS011;27638;42.184;24.848;2022-07-09T13:54:11;5.65;;;3.05;;
41946;SDS011;27638;42.184;24.848;2022-07-09T13:56:36;5.20;;;3.25;;
41946;SDS011;27638;42.184;24.848;2022-07-09T13:59:02;3.85;;;3.45;;
41946;SDS011;27638;42.184;24.848;2022-07-09T14:01:27;7.15;;;3.35;;
41946;SDS011;27638;42.184;24.848;2022-07-09T14:03:52;3.97;;;3.00;;
41946;SDS011;27638;42.184;24.848;2022-07-09T14:06:19;5.40;;;3.10;;
41946;SDS011;27638;42.184;24.848;2022-07-09T14:08:45;7.15;;;3.33;;
41946;SDS011;27638;42.184;24.848;2022-07-09T14:11:11;5.95;;;3.15;;
41946;SDS011;27638;42.184;24.848;2022-07-09T14:13:36;3.80;;;2.95;;
41946;SDS011;27638;42.184;24.848;2022-07-09T14:16:02;5.90;;;3.30;;
41946;SDS011;27638;42.184;24.848;2022-07-09T14:18:27;3.85;;;2.70;;
41946;SDS011;27638;42.184;24.848;2022-07-09T14:20:53;7.13;;;3.03;;
41946;SDS011;27638;42.184;24.848;2022-07-09T14:23:19;6.40;;;3.05;;
41946;SDS011;27638;42.184;24.848;2022-07-09T14:25:44;7.72;;;3.13;;
41946;SDS011;27638;42.184;24.848;2022-07-09T14:28:10;3.50;;;2.78;;
41946;SDS011;27638;42.184;24.848;2022-07-09T14:30:35;4.90;;;3.22;;
41946;SDS011;27638;42.184;24.848;2022-07-09T14:33:01;6.07;;;2.88;;
41946;SDS011;27638;42.184;24.848;2022-07-09T14:35:26;3.90;;;3.17;;
41946;SDS011;27638;42.184;24.848;2022-07-09T14:37:52;4.55;;;3.00;;
41946;SDS011;27638;42.184;24.848;2022-07-09T14:40:17;4.65;;;2.75;;